Time;durP1;ratioP1;P1;durP2;ratioP2;P2;SDS_P1;SDS_P2;PMS_P1;PMS_P2;Temp;Humidity;BMP_temperature;BMP_pressure;BME280_temperature;BME280_humidity;BME280_pressure;Samples;Min_cycle;Max_cycle;Signal;HPM_P1;HPM_P2
2021/07/27 00:00:49;;;;;;;8.03;7.23;;;18.40;99.90;;;;;;5091635;28;20174;-66
2021/07/27 00:03:15;;;;;;;7.80;7.10;;;18.30;99.90;;;;;;5091844;28;20231;-66
2021/07/27 00:05:40;;;;;;;7.63;7.03;;;18.30;99.90;;;;;;5090238;28;20587;-66
2021/07/27 00:08:07;;;;;;;9.07;8.30;;;18.30;99.90;;;;;;5091764;28;20197;-66
2021/07/27 00:10:35;;;;;;;9.10;8.33;;;18.20;99.90;;;;;;5091730;28;20173;-65
2021/07/27 00:13:02;;;;;;;8.00;7.43;;;18.20;99.90;;;;;;5091752;28;20311;-66
2021/07/27 00:15:27;;;;;;;8.63;7.93;;;18.20;99.90;;;;;;5091415;28;20226;-66
2021/07/27 00:17:53;;;;;;;8.30;7.70;;;18.20;99.90;;;;;;5091747;28;20193;-65
2021/07/27 00:20:20;;;;;;;9.00;8.23;;;18.20;99.90;;;;;;5091456;28;20174;-66
2021/07/27 00:22:45;;;;;;;9.00;8.20;;;18.20;99.90;;;;;;5091683;28;20539;-65
2021/07/27 00:25:14;;;;;;;9.10;8.30;;;18.10;99.90;;;;;;5091238;28;20178;-65
2021/07/27 00:27:40;;;;;;;8.90;8.10;;;18.10;99.90;;;;;;5091607;28;20217;-66
2021/07/27 00:30:06;;;;;;;9.77;8.73;;;18.20;99.90;;;;;;5091306;28;20231;-66
2021/07/27 00:32:35;;;;;;;9.57;8.67;;;18.10;99.90;;;;;;5091613;28;20197;-66
2021/07/27 00:35:03;;;;;;;8.90;7.93;;;18.10;99.90;;;;;;5091023;28;20181;-66
2021/07/27 00:37:31;;;;;;;8.93;8.20;;;18.10;99.90;;;;;;5091554;28;20181;-66
2021/07/27 00:39:57;;;;;;;8.80;8.10;;;18.10;99.90;;;;;;5091232;28;20165;-66
2021/07/27 00:42:22;;;;;;;8.43;7.60;;;18.10;99.90;;;;;;5091578;28;20165;-66
2021/07/27 00:44:48;;;;;;;8.50;7.80;;;18.10;99.90;;;;;;5090981;28;20184;-66
2021/07/27 00:47:14;;;;;;;8.20;7.60;;;18.10;99.90;;;;;;5091352;28;20181;-66
2021/07/27 00:49:39;;;;;;;10.10;9.20;;;18.10;99.90;;;;;;5091259;28;20204;-66
2021/07/27 00:52:06;;;;;;;8.83;8.03;;;18.10;99.90;;;;;;5091491;28;20166;-66
2021/07/27 00:54:33;;;;;;;9.27;8.47;;;18.10;99.90;;;;;;5092330;28;20173;-66
2021/07/27 00:56:59;;;;;;;9.77;8.87;;;18.10;99.90;;;;;;5094830;28;20220;-66
2021/07/27 00:59:26;;;;;;;9.50;8.70;;;18.10;99.90;;;;;;5095265;28;20165;-66
2021/07/27 01:01:51;;;;;;;9.33;8.53;;;18.10;99.90;;;;;;5094974;28;20188;-66
2021/07/27 01:04:17;;;;;;;10.37;8.30;;;18.20;99.90;;;;;;5095032;28;20166;-67
2021/07/27 01:06:43;;;;;;;8.03;7.20;;;18.20;99.90;;;;;;5094607;28;20200;-66
2021/07/27 01:09:08;;;;;;;8.17;7.50;;;18.10;99.90;;;;;;5095447;28;20170;-66
2021/07/27 01:11:40;;;;;;;9.57;8.80;;;18.10;99.90;;;;;;5094994;28;20177;-66
2021/07/27 01:14:06;;;;;;;9.23;8.43;;;18.10;99.90;;;;;;5094888;28;20204;-66
2021/07/27 01:16:34;;;;;;;8.73;8.03;;;18.00;99.90;;;;;;5094887;28;20173;-66
2021/07/27 01:40:44;;;;;;;11.60;10.00;;;17.80;99.90;;;;;;5094781;28;20174;-66
2021/07/27 01:43:10;;;;;;;10.13;9.23;;;17.80;99.90;;;;;;5094615;28;20656;-66
2021/07/27 01:45:35;;;;;;;10.20;9.17;;;17.90;99.90;;;;;;5094329;28;20469;-66
2021/07/27 01:48:01;;;;;;;10.83;9.73;;;17.80;99.90;;;;;;5094421;28;20194;-66
2021/07/27 01:50:27;;;;;;;10.17;9.17;;;17.90;99.90;;;;;;5094350;28;20208;-66
2021/07/27 01:52:58;;;;;;;11.03;9.90;;;17.90;99.90;;;;;;5094325;28;20192;-66
2021/07/27 01:55:32;;;;;;;10.73;9.67;;;17.90;99.90;;;;;;5093854;28;20177;-66
2021/07/27 01:57:58;;;;;;;10.30;9.40;;;18.00;99.90;;;;;;5094287;28;20205;-67
2021/07/27 02:00:25;;;;;;;14.27;10.30;;;18.00;99.90;;;;;;5094109;28;20266;-66
2021/07/27 02:02:50;;;;;;;11.47;10.47;;;18.10;99.90;;;;;;5094190;28;20170;-66
2021/07/27 02:05:16;;;;;;;11.27;10.27;;;18.10;99.90;;;;;;5092058;28;20177;-66
2021/07/27 02:07:54;;;;;;;11.23;10.23;;;18.20;99.90;;;;;;5094004;28;20208;-66
2021/07/27 02:10:19;;;;;;;11.83;10.63;;;18.20;99.90;;;;;;5093975;28;20207;-66
2021/07/27 02:15:41;;;;;;;11.97;10.30;;;18.40;99.90;;;;;;5088727;28;20684;-66
2021/07/27 02:18:07;;;;;;;11.60;10.40;;;18.50;99.90;;;;;;5093906;28;20284;-66
2021/07/27 02:20:34;;;;;;;13.47;11.00;;;18.50;99.90;;;;;;5093157;28;20281;-66
2021/07/27 02:23:00;;;;;;;16.03;12.00;;;18.50;99.90;;;;;;5093886;28;20178;-66
2021/07/27 02:25:26;;;;;;;12.13;10.90;;;18.50;99.90;;;;;;5093372;28;20656;-66
2021/07/27 02:27:51;;;;;;;13.70;12.30;;;18.50;99.90;;;;;;5093505;28;20243;-66
2021/07/27 02:30:17;;;;;;;13.20;11.90;;;18.40;99.90;;;;;;5093562;28;20181;-66
2021/07/27 02:32:45;;;;;;;14.57;11.67;;;18.30;99.90;;;;;;5093620;28;20201;-66
2021/07/27 02:35:12;;;;;;;16.00;13.33;;;18.20;99.90;;;;;;5093078;28;20173;-66
2021/07/27 02:37:37;;;;;;;16.53;14.87;;;18.10;99.90;;;;;;5093530;28;20200;-66
2021/07/27 02:40:05;;;;;;;16.43;14.47;;;18.10;99.90;;;;;;5093160;28;20182;-66
2021/07/27 02:42:31;;;;;;;15.07;13.50;;;18.00;99.90;;;;;;5093496;28;20550;-66
2021/07/27 02:44:56;;;;;;;14.83;13.23;;;17.90;99.90;;;;;;5092894;28;20670;-66
2021/07/27 02:47:24;;;;;;;14.03;12.50;;;17.80;99.90;;;;;;5093416;28;20524;-67
2021/07/27 02:49:49;;;;;;;15.23;13.73;;;17.80;99.90;;;;;;5092960;28;20201;-66
2021/07/27 02:52:15;;;;;;;15.23;13.63;;;17.70;99.90;;;;;;5093517;28;20565;-66
2021/07/27 02:54:41;;;;;;;16.80;12.70;;;17.60;99.90;;;;;;5092708;28;20169;-66
2021/07/27 02:57:06;;;;;;;14.67;13.07;;;17.60;99.90;;;;;;5093062;28;20205;-66
2021/07/27 02:59:32;;;;;;;14.20;12.63;;;17.50;99.90;;;;;;5091789;28;20169;-66
2021/07/27 03:01:57;;;;;;;16.97;12.57;;;17.40;99.90;;;;;;5092937;28;20165;-66
2021/07/27 03:04:23;;;;;;;15.07;13.47;;;17.40;99.90;;;;;;5092503;28;20181;-66
2021/07/27 03:06:49;;;;;;;14.97;13.43;;;17.30;99.90;;;;;;5092957;28;20215;-66
2021/07/27 03:09:16;;;;;;;15.20;13.67;;;17.20;99.90;;;;;;5092744;28;20282;-66
2021/07/27 03:11:42;;;;;;;16.20;13.50;;;17.20;99.90;;;;;;5092885;28;20173;-66
2021/07/27 03:14:08;;;;;;;16.87;12.87;;;17.10;99.90;;;;;;5091969;28;20243;-66
2021/07/27 03:16:34;;;;;;;17.73;13.77;;;17.00;99.90;;;;;;5092167;28;20652;-66
2021/07/27 03:18:59;;;;;;;17.03;13.73;;;17.00;99.90;;;;;;5092389;28;20181;-66
2021/07/27 03:21:26;;;;;;;15.27;13.67;;;17.00;99.90;;;;;;5092853;28;20161;-66
2021/07/27 03:23:53;;;;;;;15.13;12.47;;;17.00;99.90;;;;;;5091872;28;20173;-66
2021/07/27 03:26:21;;;;;;;14.87;12.57;;;17.00;99.90;;;;;;5092527;28;20200;-66
2021/07/27 03:28:47;;;;;;;15.33;13.27;;;17.00;99.90;;;;;;5091675;28;20560;-66
2021/07/27 03:31:14;;;;;;;14.10;12.50;;;16.90;99.90;;;;;;5092253;28;20541;-66
2021/07/27 03:33:40;;;;;;;15.03;13.33;;;16.90;99.90;;;;;;5092205;28;20197;-66
2021/07/27 03:36:05;;;;;;;15.57;13.50;;;16.90;99.90;;;;;;5092154;28;20184;-66
2021/07/27 03:38:32;;;;;;;14.80;12.90;;;16.90;99.90;;;;;;5092179;28;20185;-66
2021/07/27 03:41:11;;;;;;;15.93;12.33;;;16.90;99.90;;;;;;5092391;28;20686;-66
2021/07/27 03:43:38;;;;;;;13.87;12.53;;;16.90;99.90;;;;;;5091979;28;20563;-66
2021/07/27 03:46:04;;;;;;;13.43;12.03;;;16.90;99.90;;;;;;5091874;28;20880;-66
2021/07/27 03:48:30;;;;;;;14.37;12.30;;;16.90;99.90;;;;;;5091839;28;20233;-66
2021/07/27 03:50:55;;;;;;;12.53;11.33;;;16.80;99.90;;;;;;5092135;28;20586;-66
2021/07/27 03:53:22;;;;;;;17.50;13.13;;;16.80;99.90;;;;;;5091720;28;20202;-66
2021/07/27 03:55:48;;;;;;;13.63;12.30;;;16.70;99.90;;;;;;5091586;28;20173;-66
2021/07/27 03:58:13;;;;;;;14.20;12.80;;;16.70;99.90;;;;;;5091779;28;20262;-66
2021/07/27 04:00:39;;;;;;;15.00;12.70;;;16.70;99.90;;;;;;5092087;28;20197;-66
2021/07/27 04:03:05;;;;;;;16.27;12.50;;;16.60;99.90;;;;;;5091755;28;20174;-67
2021/07/27 04:05:34;;;;;;;14.70;13.07;;;16.60;99.90;;;;;;5091786;28;20174;-66
2021/07/27 04:08:00;;;;;;;14.47;12.97;;;16.70;99.90;;;;;;5092365;28;20216;-66
2021/07/27 04:10:26;;;;;;;13.60;12.17;;;16.70;99.90;;;;;;5092711;28;20648;-66
2021/07/27 04:12:51;;;;;;;14.80;12.37;;;16.70;99.90;;;;;;5091950;28;20202;-66
2021/07/27 04:15:18;;;;;;;14.90;13.40;;;16.70;99.90;;;;;;5091505;28;20170;-67
2021/07/27 04:17:44;;;;;;;16.00;13.47;;;16.70;99.90;;;;;;5092244;28;20208;-66
2021/07/27 04:20:10;;;;;;;15.20;13.43;;;16.80;99.90;;;;;;5091940;28;20175;-66
2021/07/27 04:22:36;;;;;;;14.90;13.30;;;16.90;99.90;;;;;;5092115;28;20173;-66
2021/07/27 04:25:02;;;;;;;18.03;13.33;;;17.00;99.90;;;;;;5091283;28;20169;-66
2021/07/27 04:27:27;;;;;;;17.27;12.80;;;17.00;99.90;;;;;;5091643;28;20282;-66
2021/07/27 04:29:53;;;;;;;15.37;12.90;;;17.10;99.90;;;;;;5091312;28;20179;-66
2021/07/27 04:32:19;;;;;;;13.10;11.80;;;17.10;99.90;;;;;;5091459;28;20173;-66
2021/07/27 04:34:44;;;;;;;14.73;12.70;;;17.20;99.90;;;;;;5091162;28;20169;-66
2021/07/27 04:37:10;;;;;;;15.83;13.30;;;17.30;99.90;;;;;;5091611;28;20258;-67
2021/07/27 04:39:36;;;;;;;12.03;10.93;;;17.30;99.90;;;;;;5091420;28;20215;-67
2021/07/27 04:42:02;;;;;;;12.27;11.13;;;17.40;99.90;;;;;;5091498;28;20170;-66
2021/07/27 04:44:27;;;;;;;13.30;12.00;;;17.50;99.90;;;;;;5091064;28;20176;-66
2021/07/27 04:46:53;;;;;;;11.83;10.63;;;17.60;99.90;;;;;;5091427;28;20189;-66
2021/07/27 04:49:19;;;;;;;13.67;11.93;;;17.70;99.90;;;;;;5091458;28;20173;-66
2021/07/27 04:51:44;;;;;;;13.23;11.93;;;17.70;99.90;;;;;;5091671;28;20197;-66
2021/07/27 04:54:16;;;;;;;12.53;11.23;;;17.80;99.90;;;;;;5090891;28;20239;-67
2021/07/27 04:56:42;;;;;;;11.67;10.57;;;17.90;99.90;;;;;;5091483;28;20172;-67
2021/07/27 04:59:08;;;;;;;11.73;10.53;;;17.90;99.90;;;;;;5131748;22;20253;-66
2021/07/27 05:01:37;;;;;;;13.80;10.20;;;17.90;99.90;;;;;;5110831;28;20177;-66
2021/07/27 05:04:03;;;;;;;12.07;10.30;;;17.90;99.90;;;;;;5110966;28;20173;-65
2021/07/27 05:06:28;;;;;;;12.27;10.47;;;17.90;99.90;;;;;;5111518;28;20539;-66
2021/07/27 05:08:54;;;;;;;12.40;10.20;;;17.90;99.90;;;;;;5095261;28;20233;-65
2021/07/27 05:11:19;;;;;;;11.33;9.50;;;18.00;99.90;;;;;;5091106;28;20260;-65
2021/07/27 05:13:45;;;;;;;12.43;9.70;;;18.00;99.90;;;;;;5090856;28;20349;-65
2021/07/27 05:16:11;;;;;;;10.23;9.23;;;18.10;99.90;;;;;;5090618;28;20170;-66
2021/07/27 05:18:36;;;;;;;10.10;9.07;;;18.10;99.90;;;;;;5091220;28;20204;-65
2021/07/27 05:21:02;;;;;;;10.47;9.50;;;18.20;99.90;;;;;;5090879;28;20184;-65
2021/07/27 05:23:28;;;;;;;11.23;9.80;;;18.20;99.90;;;;;;5090970;28;20169;-65
2021/07/27 05:25:54;;;;;;;10.77;9.67;;;18.20;99.90;;;;;;5090613;28;20178;-66
2021/07/27 05:28:20;;;;;;;11.80;9.37;;;18.30;99.90;;;;;;5090966;28;20798;-66
2021/07/27 05:30:46;;;;;;;10.40;9.27;;;18.40;99.90;;;;;;5090930;28;20256;-66
2021/07/27 05:33:11;;;;;;;10.17;9.23;;;18.50;99.90;;;;;;5090516;28;20228;-65
2021/07/27 05:35:38;;;;;;;10.27;9.20;;;18.60;99.90;;;;;;5091162;28;20181;-66
2021/07/27 05:38:04;;;;;;;10.53;9.40;;;18.60;99.90;;;;;;5090728;28;20707;-66
2021/07/27 05:40:31;;;;;;;11.83;9.20;;;18.60;99.90;;;;;;5091668;28;20170;-66
2021/07/27 05:42:58;;;;;;;10.57;9.03;;;18.70;99.90;;;;;;5094591;28;20170;-66
2021/07/27 05:45:25;;;;;;;11.77;9.57;;;18.80;99.90;;;;;;5094072;28;20195;-66
2021/07/27 05:47:51;;;;;;;9.53;8.73;;;18.90;99.90;;;;;;5094022;28;20203;-66
2021/07/27 05:50:17;;;;;;;13.63;10.37;;;19.00;99.90;;;;;;5094340;28;20212;-66
2021/07/27 05:52:43;;;;;;;10.23;8.73;;;19.10;99.90;;;;;;5094069;28;20659;-66
2021/07/27 05:55:09;;;;;;;11.20;9.70;;;19.10;99.90;;;;;;5094239;28;20249;-66
2021/07/27 05:57:34;;;;;;;9.63;8.83;;;19.10;99.90;;;;;;5093995;28;20579;-66
2021/07/27 06:00:00;;;;;;;12.30;11.10;;;19.10;99.90;;;;;;5094041;28;20169;-66
2021/07/27 06:02:26;;;;;;;10.83;9.80;;;19.20;99.90;;;;;;5094149;28;20692;-65
2021/07/27 06:04:51;;;;;;;9.53;8.73;;;19.20;99.90;;;;;;5093939;28;20172;-65
2021/07/27 06:07:17;;;;;;;9.80;9.00;;;19.30;99.90;;;;;;5094155;28;20656;-65
2021/07/27 06:09:43;;;;;;;9.63;8.73;;;19.40;99.90;;;;;;5093428;28;20173;-65
2021/07/27 06:12:09;;;;;;;10.93;9.83;;;19.60;99.90;;;;;;5094013;28;20197;-66
2021/07/27 06:14:35;;;;;;;11.07;10.00;;;19.70;99.90;;;;;;5084773;28;20677;-66
2021/07/27 06:17:01;;;;;;;10.47;9.43;;;19.80;99.90;;;;;;5081634;28;20554;-67
2021/07/27 06:19:26;;;;;;;9.80;9.00;;;19.90;99.90;;;;;;5089960;28;20170;-66
2021/07/27 06:21:52;;;;;;;15.60;10.03;;;20.20;99.90;;;;;;5093686;28;20181;-65
2021/07/27 06:24:18;;;;;;;10.47;9.67;;;20.40;99.90;;;;;;5093207;28;20173;-66
2021/07/27 06:26:44;;;;;;;10.90;9.80;;;20.60;99.90;;;;;;5093599;28;20548;-66
2021/07/27 06:29:10;;;;;;;9.80;8.97;;;20.90;99.90;;;;;;5093285;28;20201;-66
2021/07/27 06:31:36;;;;;;;11.07;10.07;;;20.90;99.90;;;;;;5093342;28;20173;-66
2021/07/27 06:34:02;;;;;;;10.87;9.67;;;21.00;99.90;;;;;;5092702;28;20663;-66
2021/07/27 06:36:28;;;;;;;13.07;11.97;;;20.90;99.90;;;;;;5093588;28;20170;-65
2021/07/27 06:38:54;;;;;;;11.47;10.53;;;20.70;99.90;;;;;;5093345;28;20192;-66
2021/07/27 06:41:20;;;;;;;9.37;8.57;;;20.50;99.90;;;;;;5075089;28;20554;-66
2021/07/27 06:43:46;;;;;;;12.03;11.13;;;20.50;99.90;;;;;;5092704;28;20179;-65
2021/07/27 06:46:12;;;;;;;10.47;9.00;;;20.50;99.90;;;;;;5093238;28;20264;-67
2021/07/27 06:48:38;;;;;;;10.13;9.33;;;20.60;99.90;;;;;;5092958;28;20197;-66
2021/07/27 06:51:11;;;;;;;10.37;9.60;;;20.70;99.90;;;;;;5092921;28;20185;-65
2021/07/27 06:53:37;;;;;;;9.47;8.77;;;20.90;99.90;;;;;;5092670;28;20227;-66
2021/07/27 06:56:04;;;;;;;9.37;8.67;;;21.00;99.90;;;;;;5093254;28;20537;-66
2021/07/27 06:58:30;;;;;;;10.27;9.13;;;21.00;99.90;;;;;;5092685;28;20209;-66
2021/07/27 07:01:09;;;;;;;9.43;8.80;;;21.10;99.90;;;;;;5092404;28;20532;-66
2021/07/27 07:03:37;;;;;;;9.47;8.67;;;21.20;99.90;;;;;;5092933;28;20252;-66
2021/07/27 07:06:03;;;;;;;9.10;8.30;;;21.40;99.90;;;;;;5092348;28;20223;-66
2021/07/27 07:08:29;;;;;;;9.73;8.70;;;21.40;99.90;;;;;;5092903;28;20189;-66
2021/07/27 07:10:56;;;;;;;9.33;8.53;;;21.40;99.90;;;;;;5074273;28;20199;-66
2021/07/27 07:13:21;;;;;;;9.15;8.45;;;21.60;99.90;;;;;;5092507;28;20193;-66
2021/07/27 07:15:47;;;;;;;8.88;8.18;;;21.60;99.90;;;;;;5092348;28;20276;-65
2021/07/27 07:18:12;;;;;;;9.05;8.35;;;21.70;99.90;;;;;;5074368;28;20200;-65
2021/07/27 07:20:38;;;;;;;14.13;8.18;;;21.70;99.90;;;;;;5092529;28;20181;-65
2021/07/27 07:23:04;;;;;;;8.27;7.57;;;21.70;99.90;;;;;;5092560;28;20652;-66
2021/07/27 07:25:29;;;;;;;9.23;7.80;;;21.70;99.90;;;;;;5092083;28;20209;-66
2021/07/27 07:27:55;;;;;;;9.63;8.73;;;21.80;99.90;;;;;;5092095;28;20618;-66
2021/07/27 07:30:21;;;;;;;8.82;8.13;;;21.90;99.90;;;;;;5092203;28;20717;-66
2021/07/27 07:32:46;;;;;;;9.45;8.52;;;22.00;99.90;;;;;;5092177;28;20219;-66
2021/07/27 07:35:12;;;;;;;8.68;7.80;;;22.00;99.90;;;;;;5074161;28;20256;-66
2021/07/27 07:37:38;;;;;;;9.20;7.53;;;22.10;99.90;;;;;;5092122;28;20193;-65
2021/07/27 07:40:04;;;;;;;9.30;8.43;;;22.20;99.90;;;;;;5073858;28;20242;-65
2021/07/27 07:42:30;;;;;;;8.05;7.40;;;22.20;99.90;;;;;;5091970;28;20182;-66
2021/07/27 07:44:56;;;;;;;8.60;7.90;;;22.30;99.90;;;;;;5091816;28;20170;-66
2021/07/27 07:47:21;;;;;;;8.43;7.75;;;22.70;99.90;;;;;;5091988;28;20277;-65
2021/07/27 07:49:47;;;;;;;8.10;7.40;;;23.00;99.90;;;;;;5092299;28;20169;-66
2021/07/27 07:52:14;;;;;;;8.98;8.18;;;23.40;99.90;;;;;;5091751;28;20177;-66
2021/07/27 07:54:39;;;;;;;8.05;7.45;;;23.70;99.90;;;;;;5091744;28;20575;-66
2021/07/27 07:57:05;;;;;;;8.85;7.40;;;24.10;99.90;;;;;;5091571;28;20181;-66
2021/07/27 07:59:31;;;;;;;8.90;8.10;;;24.50;99.90;;;;;;5091818;28;20263;-66
2021/07/27 08:01:59;;;;;;;9.27;8.48;;;25.00;99.90;;;;;;5091390;28;20704;-67
2021/07/27 08:04:25;;;;;;;9.20;8.50;;;25.50;99.90;;;;;;5090687;28;20161;-66
2021/07/27 08:06:51;;;;;;;8.45;7.65;;;25.60;99.90;;;;;;5091438;28;20169;-66
2021/07/27 08:09:17;;;;;;;8.55;7.85;;;25.70;99.90;;;;;;5091899;28;20197;-67
2021/07/27 08:11:43;;;;;;;8.07;7.47;;;26.00;99.90;;;;;;5091433;28;20611;-66
2021/07/27 08:14:08;;;;;;;9.38;8.30;;;26.30;99.90;;;;;;5091381;28;20201;-66
2021/07/27 08:16:34;;;;;;;8.63;7.93;;;26.30;99.90;;;;;;5091766;28;20169;-66
2021/07/27 08:19:01;;;;;;;8.30;7.60;;;26.40;99.90;;;;;;5091580;28;20779;-66
2021/07/27 08:21:26;;;;;;;7.93;7.13;;;26.70;99.90;;;;;;5091503;28;20169;-66
2021/07/27 08:23:52;;;;;;;8.63;7.75;;;26.90;99.90;;;;;;5091041;28;20184;-66
2021/07/27 08:26:18;;;;;;;8.50;7.75;;;27.00;99.90;;;;;;5091517;28;20248;-66
2021/07/27 08:28:46;;;;;;;8.93;8.00;;;26.90;99.90;;;;;;5091207;28;20197;-66
2021/07/27 08:31:15;;;;;;;8.10;7.30;;;26.90;99.90;;;;;;5091740;28;20197;-66
2021/07/27 08:33:42;;;;;;;9.77;8.98;;;27.20;99.90;;;;;;5091129;28;20646;-66
2021/07/27 08:36:08;;;;;;;10.10;9.10;;;27.40;99.90;;;;;;5090942;28;20173;-67
2021/07/27 08:38:35;;;;;;;9.05;8.35;;;27.40;99.90;;;;;;5091494;28;20197;-66
2021/07/27 08:41:02;;;;;;;9.07;8.20;;;27.60;99.90;;;;;;5091310;28;20252;-66
2021/07/27 08:43:28;;;;;;;8.88;8.07;;;27.80;99.90;;;;;;5091076;28;20652;-66
2021/07/27 08:45:54;;;;;;;8.10;7.45;;;28.20;99.90;;;;;;5091474;28;20226;-66
2021/07/27 08:48:21;;;;;;;7.90;7.30;;;28.50;99.90;;;;;;5091017;28;20576;-67
2021/07/27 08:50:47;;;;;;;8.32;7.57;;;28.80;99.90;;;;;;5091325;28;20169;-66
2021/07/27 08:53:13;;;;;;;7.95;7.25;;;28.90;99.90;;;;;;5090936;28;20212;-66
2021/07/27 08:55:39;;;;;;;8.93;8.13;;;29.20;99.90;;;;;;5091387;28;20636;-66
2021/07/27 08:58:05;;;;;;;8.07;7.35;;;29.20;99.90;;;;;;5090603;28;20258;-66
2021/07/27 09:00:32;;;;;;;8.57;7.80;;;29.20;99.90;;;;;;5090636;28;20170;-66
2021/07/27 09:03:28;;;;;;;7.40;6.78;;;29.50;99.90;;;;;;5072708;28;20234;-66
2021/07/27 09:06:06;;;;;;;7.13;6.53;;;29.90;99.90;;;;;;5070245;28;20181;-66
2021/07/27 09:08:32;;;;;;;7.65;6.95;;;30.20;99.90;;;;;;5091010;28;20193;-67
2021/07/27 09:11:00;;;;;;;7.40;6.75;;;30.50;99.90;;;;;;5090749;28;20203;-66
2021/07/27 09:13:32;;;;;;;9.18;7.20;;;30.30;99.90;;;;;;5090985;28;20242;-66
2021/07/27 09:15:58;;;;;;;7.80;7.03;;;30.20;99.90;;;;;;5092639;28;20272;-67
2021/07/27 09:18:24;;;;;;;8.77;7.68;;;30.50;99.90;;;;;;5094868;28;20194;-66
2021/07/27 09:20:54;;;;;;;8.95;8.18;;;30.40;99.90;;;;;;5094670;28;20194;-66
2021/07/27 09:23:20;;;;;;;7.18;6.57;;;30.40;99.90;;;;;;5094484;28;20548;-66
2021/07/27 09:25:51;;;;;;;8.55;7.85;;;30.20;99.90;;;;;;5076582;28;20177;-66
2021/07/27 09:28:17;;;;;;;7.63;6.85;;;30.00;99.90;;;;;;5093788;28;20196;-66
2021/07/27 09:30:44;;;;;;;7.75;7.05;;;30.30;99.90;;;;;;5094867;28;20538;-66
2021/07/27 09:33:12;;;;;;;8.25;7.50;;;30.80;99.90;;;;;;5094510;28;20201;-66
2021/07/27 09:35:39;;;;;;;9.35;8.65;;;30.70;99.90;;;;;;5094796;28;20300;-66
2021/07/27 09:38:16;;;;;;;7.93;7.28;;;30.10;99.90;;;;;;5094523;28;20189;-66
2021/07/27 09:40:48;;;;;;;9.38;8.57;;;29.50;99.90;;;;;;5094915;28;20170;-66
2021/07/27 09:43:18;;;;;;;8.23;7.53;;;29.00;99.90;;;;;;5093922;28;20256;-66
2021/07/27 09:45:49;;;;;;;8.75;7.95;;;28.50;99.90;;;;;;5094358;28;20572;-66
2021/07/27 09:48:16;;;;;;;7.80;6.82;;;28.20;99.90;;;;;;5094162;28;20219;-66
2021/07/27 09:50:48;;;;;;;8.13;7.60;;;28.10;99.90;;;;;;5094448;28;20196;-66
2021/07/27 09:53:15;;;;;;;9.93;8.85;;;28.00;99.90;;;;;;5094438;28;20257;-66
2021/07/27 09:55:41;;;;;;;7.65;7.05;;;28.00;99.90;;;;;;5094298;28;20668;-67
2021/07/27 09:58:07;;;;;;;7.75;7.13;;;28.60;99.90;;;;;;5093427;28;20262;-67
2021/07/27 10:00:41;;;;;;;7.63;7.03;;;29.10;99.90;;;;;;5094326;28;20162;-66
2021/07/27 10:03:12;;;;;;;7.65;7.05;;;29.50;99.90;;;;;;5075924;28;20276;-66
2021/07/27 10:05:38;;;;;;;7.82;7.22;;;30.10;99.90;;;;;;5076136;28;20173;-67
2021/07/27 10:08:04;;;;;;;7.63;6.93;;;30.20;99.90;;;;;;5075385;28;20204;-66
2021/07/27 10:10:38;;;;;;;8.18;7.40;;;30.10;99.90;;;;;;5093898;28;20562;-66
2021/07/27 10:13:08;;;;;;;9.07;8.27;;;30.00;99.90;;;;;;5093983;28;20205;-66
2021/07/27 10:15:42;;;;;;;7.57;6.88;;;29.50;99.90;;;;;;5093807;28;20230;-66
2021/07/27 10:18:08;;;;;;;8.68;7.90;;;29.00;99.90;;;;;;5075674;28;20214;-66
2021/07/27 10:20:34;;;;;;;8.27;7.57;;;28.10;99.90;;;;;;5093907;28;20172;-66
2021/07/27 10:23:11;;;;;;;9.13;8.35;;;27.70;99.90;;;;;;5093896;28;20521;-66
2021/07/27 10:25:37;;;;;;;9.60;8.20;;;27.40;99.90;;;;;;5093445;28;20173;-66
2021/07/27 10:28:02;;;;;;;8.40;7.65;;;27.30;99.90;;;;;;5093883;28;20212;-66
2021/07/27 10:30:36;;;;;;;7.55;6.82;;;27.20;99.90;;;;;;5093502;28;20181;-66
2021/07/27 10:33:02;;;;;;;7.78;7.13;;;27.50;99.90;;;;;;5093418;28;20204;-66
2021/07/27 10:35:33;;;;;;;8.15;7.45;;;27.80;99.90;;;;;;5093219;28;20180;-66
2021/07/27 10:38:13;;;;;;;7.38;6.72;;;27.90;99.90;;;;;;5093535;28;20185;-66
2021/07/27 10:40:40;;;;;;;9.30;8.35;;;27.80;99.90;;;;;;5093410;28;20529;-66
2021/07/27 10:43:07;;;;;;;9.98;7.72;;;27.20;99.90;;;;;;5093482;28;20177;-67
2021/07/27 10:45:33;;;;;;;9.20;8.50;;;27.00;99.90;;;;;;5093162;28;20185;-66
2021/07/27 10:47:59;;;;;;;7.28;6.68;;;26.90;99.90;;;;;;5093311;28;20258;-66
2021/07/27 10:50:27;;;;;;;7.53;6.82;;;26.90;99.90;;;;;;5093104;28;20177;-66
2021/07/27 10:53:02;;;;;;;8.32;7.65;;;27.20;99.90;;;;;;5093294;28;20589;-66
2021/07/27 10:55:29;;;;;;;8.93;8.20;;;27.40;99.90;;;;;;5092662;28;20176;-66
2021/07/27 10:57:56;;;;;;;9.15;8.27;;;27.70;99.90;;;;;;5093379;28;20209;-66
2021/07/27 11:00:33;;;;;;;9.95;7.53;;;27.80;99.90;;;;;;5092731;28;20580;-66
2021/07/27 11:03:00;;;;;;;7.75;7.13;;;27.90;99.90;;;;;;5093062;28;20214;-66
2021/07/27 11:05:30;;;;;;;8.45;7.63;;;27.80;99.90;;;;;;5092650;28;20557;-66
2021/07/27 11:07:56;;;;;;;8.05;7.35;;;27.70;99.90;;;;;;5092899;28;20216;-66
2021/07/27 11:10:24;;;;;;;7.72;7.13;;;28.00;99.90;;;;;;5092553;28;20216;-66
2021/07/27 11:12:50;;;;;;;8.20;7.50;;;28.20;99.90;;;;;;5092798;28;20688;-66
2021/07/27 11:15:26;;;;;;;7.40;6.70;;;28.50;99.90;;;;;;5092533;28;20615;-66
2021/07/27 11:18:00;;;;;;;8.25;7.55;;;28.40;99.90;;;;;;5092719;28;20192;-66
2021/07/27 11:20:27;;;;;;;7.78;7.10;;;28.70;99.90;;;;;;5092371;28;20648;-66
2021/07/27 11:23:00;;;;;;;9.40;7.57;;;29.00;99.90;;;;;;5092039;28;20898;-66
2021/07/27 11:25:28;;;;;;;7.65;7.05;;;29.10;99.90;;;;;;5092342;28;20249;-66
2021/07/27 11:27:54;;;;;;;7.70;6.93;;;29.30;99.90;;;;;;5089825;28;20197;-66
2021/07/27 11:30:22;;;;;;;7.03;6.38;;;29.90;99.90;;;;;;5092284;28;20189;-66
2021/07/27 11:32:49;;;;;;;6.10;5.65;;;29.80;99.90;;;;;;5091848;28;20264;-66
2021/07/27 11:35:17;;;;;;;7.03;6.53;;;30.10;99.90;;;;;;5091858;28;20177;-66
2021/07/27 11:37:44;;;;;;;7.30;6.75;;;30.00;99.90;;;;;;5091432;28;20233;-66
2021/07/27 11:40:24;;;;;;;7.72;7.00;;;29.80;99.90;;;;;;5091984;28;20253;-66
2021/07/27 11:43:05;;;;;;;7.00;6.40;;;29.70;99.90;;;;;;5092005;28;20305;-66
2021/07/27 11:45:36;;;;;;;7.00;6.38;;;29.90;99.90;;;;;;5092048;28;20169;-66
2021/07/27 11:48:02;;;;;;;6.72;6.20;;;30.20;99.90;;;;;;5091710;28;20201;-66
2021/07/27 11:50:30;;;;;;;7.10;6.40;;;30.50;99.90;;;;;;5092155;28;20269;-66
2021/07/27 11:53:00;;;;;;;6.90;6.25;;;30.80;99.90;;;;;;5091577;28;20201;-66
2021/07/27 11:55:29;;;;;;;7.15;6.65;;;30.90;99.90;;;;;;5091799;28;20165;-66
2021/07/27 11:57:55;;;;;;;7.90;7.20;;;30.70;99.90;;;;;;5091580;28;20209;-66
2021/07/27 12:00:21;;;;;;;7.53;6.88;;;30.60;99.90;;;;;;5091742;28;20166;-66
2021/07/27 12:02:47;;;;;;;8.20;7.15;;;30.10;99.90;;;;;;5091587;28;20713;-66
2021/07/27 12:05:13;;;;;;;7.47;6.88;;;30.10;99.90;;;;;;5091596;28;20166;-66
2021/07/27 12:07:39;;;;;;;7.57;6.18;;;30.10;99.90;;;;;;5091540;28;20197;-66
2021/07/27 12:10:06;;;;;;;8.07;7.38;;;30.30;99.90;;;;;;5091739;28;20672;-66
2021/07/27 12:12:32;;;;;;;8.82;7.88;;;30.30;99.90;;;;;;5091303;28;20173;-66
2021/07/27 12:14:58;;;;;;;8.02;7.22;;;29.70;99.90;;;;;;5091316;28;20165;-66
2021/07/27 12:17:24;;;;;;;8.65;7.85;;;29.80;99.90;;;;;;5091423;28;20229;-66
2021/07/27 12:19:50;;;;;;;7.63;7.03;;;29.90;99.90;;;;;;5091474;28;20188;-66
2021/07/27 12:22:16;;;;;;;6.90;6.40;;;30.20;99.90;;;;;;5090313;28;20828;-66
2021/07/27 12:24:41;;;;;;;6.80;6.30;;;30.60;99.90;;;;;;5091299;28;20173;-66
2021/07/27 12:27:07;;;;;;;6.72;6.13;;;30.60;99.90;;;;;;5091168;28;20181;-66
2021/07/27 12:29:33;;;;;;;6.50;6.00;;;30.30;99.90;;;;;;5091653;28;20260;-66
2021/07/27 12:31:59;;;;;;;5.88;5.38;;;30.00;99.90;;;;;;5091210;28;20730;-66
2021/07/27 12:34:24;;;;;;;6.85;6.35;;;29.70;99.90;;;;;;5091036;28;20574;-66
2021/07/27 12:36:50;;;;;;;8.48;7.78;;;29.60;99.90;;;;;;5091101;28;20222;-66
2021/07/27 12:39:15;;;;;;;7.03;6.43;;;29.20;99.90;;;;;;5091357;28;20736;-66
2021/07/27 12:41:43;;;;;;;8.80;8.07;;;29.40;99.90;;;;;;5091076;28;20165;-66
2021/07/27 12:44:10;;;;;;;6.78;6.22;;;29.80;99.90;;;;;;5091264;28;20174;-66
2021/07/27 12:46:35;;;;;;;6.80;6.20;;;30.50;99.90;;;;;;5091216;28;20169;-66
2021/07/27 12:49:02;;;;;;;7.53;6.68;;;31.10;99.90;;;;;;5091566;28;20334;-66
2021/07/27 12:51:27;;;;;;;7.00;6.03;;;31.30;99.90;;;;;;5095244;28;20181;-66
2021/07/27 12:53:53;;;;;;;5.97;5.47;;;31.30;99.90;;;;;;5076997;28;20205;-66
2021/07/27 12:56:19;;;;;;;7.43;6.45;;;30.80;99.90;;;;;;5095382;28;20176;-66
2021/07/27 12:58:44;;;;;;;6.93;6.32;;;30.40;99.90;;;;;;5095049;28;20204;-66
2021/07/27 13:01:10;;;;;;;8.48;7.32;;;30.30;99.90;;;;;;5095171;28;20177;-66
2021/07/27 13:03:36;;;;;;;7.28;6.57;;;30.50;99.90;;;;;;5094866;28;20200;-66